Mozyr', Belarus
Current Conditions -  °F | °C
As of 8:30 AM on Wednesday 26 Nov 2014 (Local Time) from UMGG Reporting Station
Light Snow Light Snow  
Wind Chill: 19°   Ceiling: 1200
Heat Index: 19°   Visibility: 6mi
Dew Point: 14°   Wind: 2mph
Humidity: 80%   Direction: NA
Pressure: 30.48"   Gusts: NA
Location:  52.05°N, 29.26°E
Report Text: UMGG 260630Z VRB01MPS 9999 -SN OVC012 M07/M10 Q1032 R10/CLRD//NOSIG
Loading
Personal Weather Stations






























Interactive Weather Map New forecast layout! Learn more

10-Day Weather Forecast

Advertisements
Track Severe Weather on mobile